createdAt,value
2016-12-19T00:01:09.367Z,6.18
2016-12-19T00:02:20.352Z,6.21
2016-12-19T00:03:31.331Z,6.21
2016-12-19T00:04:42.319Z,6.17
2016-12-19T00:05:53.710Z,6.17
2016-12-19T00:07:04.730Z,6.18
2016-12-19T00:08:15.717Z,6.13
2016-12-19T00:09:26.701Z,6.15
2016-12-19T00:10:37.692Z,6.07
2016-12-19T00:11:49.075Z,6.2
2016-12-19T00:13:00.055Z,6.1
2016-12-19T00:14:11.043Z,6.14
2016-12-19T00:15:22.030Z,6.13
2016-12-19T00:16:33.026Z,6.14
2016-12-19T00:17:44.028Z,6.14
2016-12-19T00:18:55.023Z,6.1
2016-12-19T00:20:06.009Z,6.17
2016-12-19T00:21:16.999Z,6.18
2016-12-19T00:22:27.977Z,6.2
2016-12-19T00:23:38.962Z,6.15
2016-12-19T00:24:49.948Z,6.17
2016-12-19T00:26:00.946Z,6.18
2016-12-19T00:27:11.934Z,6.17
2016-12-19T00:28:22.920Z,6.09
2016-12-19T00:29:33.912Z,6.15
2016-12-19T00:30:44.951Z,6.13
2016-12-19T00:31:55.936Z,6.03
2016-12-19T00:33:06.933Z,6.2
2016-12-19T00:34:17.931Z,6.15
2016-12-19T00:35:28.917Z,6.17
2016-12-19T00:36:39.955Z,6.17
2016-12-19T00:37:50.941Z,6.17
2016-12-19T00:39:01.928Z,6.17
2016-12-19T00:40:12.914Z,6.24
2016-12-19T00:41:23.928Z,6.2
2016-12-19T00:42:34.969Z,6.17
2016-12-19T00:43:45.958Z,6.17
2016-12-19T00:44:56.941Z,6.18
2016-12-19T00:46:07.922Z,6.13
2016-12-19T00:47:18.911Z,6.18
2016-12-19T00:48:29.947Z,6.24
2016-12-19T00:49:40.942Z,6.1
2016-12-19T00:50:52.128Z,6.21
2016-12-19T00:52:03.120Z,6.15
2016-12-19T00:53:14.314Z,6.26
2016-12-19T00:54:25.384Z,6.17
2016-12-19T00:55:36.368Z,6.15
2016-12-19T00:56:47.355Z,6.17
2016-12-19T00:57:58.368Z,6.07
2016-12-19T00:59:09.379Z,6.14
2016-12-19T01:00:20.415Z,6.21
2016-12-19T01:01:31.398Z,6.17
2016-12-19T01:02:42.587Z,6.15
2016-12-19T01:03:53.577Z,6.21
2016-12-19T01:05:04.566Z,6.18
2016-12-19T01:06:15.808Z,6.14
2016-12-19T01:07:26.796Z,6.15
2016-12-19T01:08:37.791Z,6.07
2016-12-19T01:09:48.789Z,6.2
2016-12-19T01:10:59.775Z,6.21
2016-12-19T01:12:10.816Z,6.17
2016-12-19T01:13:21.803Z,6.17
2016-12-19T01:14:32.789Z,6.14
2016-12-19T01:15:43.775Z,6.14
2016-12-19T01:16:54.766Z,6.21
2016-12-19T01:18:05.794Z,6.14
2016-12-19T01:19:16.792Z,6.13
2016-12-19T01:20:27.780Z,6.17
2016-12-19T01:21:38.763Z,6.13
2016-12-19T01:22:49.749Z,6.17
2016-12-19T01:24:00.787Z,6.14
2016-12-19T01:25:11.999Z,6.17
2016-12-19T01:26:22.983Z,6.24
2016-12-19T01:27:33.969Z,6.24
2016-12-19T01:28:44.959Z,6.17
2016-12-19T01:29:56.214Z,6.25
2016-12-19T01:31:07.398Z,6.18
2016-12-19T01:32:18.388Z,6.14
2016-12-19T01:33:29.384Z,6.2
2016-12-19T01:34:40.369Z,6.15
2016-12-19T01:35:51.409Z,6.18
2016-12-19T01:37:02.395Z,6.15
2016-12-19T01:38:13.383Z,6.14
2016-12-19T01:39:24.366Z,6.1
2016-12-19T01:40:35.354Z,6.2
2016-12-19T01:41:46.389Z,6.15
2016-12-19T01:42:57.382Z,6.25
2016-12-19T01:44:08.383Z,6.21
2016-12-19T01:45:19.580Z,6.25
2016-12-19T01:46:30.565Z,6.21
2016-12-19T01:47:41.602Z,6.25
2016-12-19T01:48:52.581Z,6.24
2016-12-19T01:50:03.601Z,6.21
2016-12-19T01:51:14.590Z,6.18
2016-12-19T01:52:25.775Z,6.14
2016-12-19T01:53:36.820Z,6.2
2016-12-19T01:54:47.802Z,6.25
2016-12-19T01:55:58.822Z,6.21
2016-12-19T01:57:09.811Z,6.2
2016-12-19T01:58:20.804Z,6.21
2016-12-19T01:59:32.036Z,6.14
2016-12-19T02:00:43.020Z,6.24
2016-12-19T02:01:54.008Z,6.25
2016-12-19T02:03:05.204Z,6.21
2016-12-19T02:04:16.186Z,6.24
2016-12-19T02:05:27.222Z,6.25
2016-12-19T02:06:38.208Z,6.28
2016-12-19T02:07:49.196Z,6.24
2016-12-19T02:09:00.390Z,6.21
2016-12-19T02:10:11.377Z,6.17
2016-12-19T02:11:22.617Z,6.07
2016-12-19T02:12:33.608Z,6.18
2016-12-19T02:13:44.595Z,6.09
2016-12-19T02:14:55.589Z,6.17
2016-12-19T02:16:06.584Z,6.26
2016-12-19T02:17:17.637Z,6.21
2016-12-19T02:18:28.834Z,6.21
2016-12-19T02:19:39.834Z,6.24
2016-12-19T02:20:50.809Z,6.17
2016-12-19T02:22:01.800Z,6.18
2016-12-19T02:23:12.844Z,6.17
2016-12-19T02:24:23.829Z,6.07
2016-12-19T02:25:34.851Z,6.03
2016-12-19T02:26:45.849Z,6.1
2016-12-19T02:27:56.864Z,6.1
2016-12-19T02:29:07.895Z,6.25
2016-12-19T02:30:18.882Z,6.2
2016-12-19T02:31:30.079Z,6.25
2016-12-19T02:32:41.065Z,6.25
2016-12-19T02:33:52.057Z,6.29
2016-12-19T02:35:03.087Z,6.26
2016-12-19T02:36:14.072Z,6.21
2016-12-19T02:37:25.065Z,6.21
2016-12-19T02:38:36.059Z,6.24
2016-12-19T02:39:47.043Z,6.15
2016-12-19T02:40:58.032Z,6.21
2016-12-19T02:42:09.034Z,6.28
2016-12-19T02:43:20.234Z,6.18
2016-12-19T02:44:31.438Z,6.15
2016-12-19T02:45:42.427Z,6.15
2016-12-19T02:46:53.417Z,6.2
2016-12-19T02:48:04.409Z,6.31
2016-12-19T02:49:15.610Z,6.28
2016-12-19T02:50:26.600Z,6.24
2016-12-19T02:51:37.603Z,6.24
2016-12-19T02:52:48.596Z,6.28
2016-12-19T02:53:59.587Z,6.21
2016-12-19T02:55:10.584Z,6.28
2016-12-19T02:56:21.592Z,6.29
2016-12-19T02:57:32.600Z,6.25
2016-12-19T02:58:43.601Z,6.26
2016-12-19T02:59:54.600Z,6.18
2016-12-19T03:01:05.793Z,6.25
2016-12-19T03:02:16.781Z,6.24
2016-12-19T03:03:27.769Z,6.21
2016-12-19T03:04:38.750Z,6.25
2016-12-19T03:05:49.739Z,6.18
2016-12-19T03:07:00.731Z,6.25
2016-12-19T03:08:11.916Z,6.17
2016-12-19T03:09:23.118Z,6.21
2016-12-19T03:10:34.110Z,6.29
2016-12-19T03:11:45.093Z,6.18
2016-12-19T03:12:56.124Z,6.21
2016-12-19T03:14:07.110Z,6.1
2016-12-19T03:15:18.156Z,6.25
2016-12-19T03:16:29.148Z,6.14
2016-12-19T03:17:40.133Z,6.24
2016-12-19T03:18:51.137Z,6.2
2016-12-19T03:20:02.159Z,6.2
2016-12-19T03:21:13.142Z,6.21
2016-12-19T03:22:24.131Z,6.21
2016-12-19T03:23:35.117Z,6.28
2016-12-19T03:24:46.114Z,6.26
2016-12-19T03:25:57.101Z,6.21
2016-12-19T03:27:08.088Z,6.14
2016-12-19T03:28:19.070Z,6.25
2016-12-19T03:29:30.059Z,6.24
2016-12-19T03:30:41.097Z,6.25
2016-12-19T03:31:52.113Z,6.2
2016-12-19T03:33:03.103Z,6.18
2016-12-19T03:34:14.097Z,6.14
2016-12-19T03:35:25.137Z,6.15
2016-12-19T03:36:36.128Z,6.21
2016-12-19T03:37:47.108Z,6.1
2016-12-19T03:38:58.292Z,6.21
2016-12-19T03:40:09.292Z,6.26
2016-12-19T03:41:20.294Z,6.21
2016-12-19T03:42:31.310Z,6.1
2016-12-19T03:43:42.496Z,6.13
2016-12-19T03:44:53.487Z,6.15
2016-12-19T03:46:04.480Z,6.18
2016-12-19T03:47:15.476Z,6.24
2016-12-19T03:48:26.459Z,6.18
2016-12-19T03:49:37.448Z,6.25
2016-12-19T03:50:48.483Z,6.25
2016-12-19T03:51:59.475Z,6.21
2016-12-19T03:53:10.467Z,6.15
2016-12-19T03:54:21.660Z,6.13
2016-12-19T03:55:32.853Z,6.1
2016-12-19T03:56:44.036Z,6.14
2016-12-19T03:57:55.021Z,6.14
2016-12-19T03:59:06.215Z,6.14
2016-12-19T04:00:17.203Z,6.2
2016-12-19T04:01:28.232Z,6.14
2016-12-19T04:02:39.225Z,6.2
2016-12-19T04:03:50.218Z,6.05
2016-12-19T04:05:01.196Z,6.18
2016-12-19T04:06:12.190Z,6.1
2016-12-19T04:07:23.186Z,6.2
2016-12-19T04:08:34.409Z,6.1
2016-12-19T04:09:45.807Z,6.07
2016-12-19T04:10:56.795Z,6.09
2016-12-19T04:12:07.796Z,6.09
2016-12-19T04:13:18.783Z,6.13
2016-12-19T04:14:29.779Z,6.09
2016-12-19T04:15:40.762Z,6.05
2016-12-19T04:16:51.746Z,6.06
2016-12-19T04:18:02.753Z,6.06
2016-12-19T04:19:13.742Z,6.03
2016-12-19T04:20:24.723Z,6.07
2016-12-19T04:21:35.713Z,6.13
2016-12-19T04:22:46.706Z,6.07
2016-12-19T04:23:57.701Z,6.06
2016-12-19T04:25:08.694Z,6.06
2016-12-19T04:26:19.685Z,6.07
2016-12-19T04:27:30.669Z,6.1
2016-12-19T04:28:41.654Z,6.2
2016-12-19T04:29:52.641Z,6.09
2016-12-19T04:31:03.634Z,6.17
2016-12-19T04:32:14.616Z,6.1
2016-12-19T04:33:25.609Z,6.15
2016-12-19T04:34:36.597Z,6.1
2016-12-19T04:35:47.582Z,6.07
2016-12-19T04:36:58.577Z,6.17
2016-12-19T04:38:09.570Z,6.09
2016-12-19T04:39:20.759Z,6.1
2016-12-19T04:40:31.749Z,6.14
2016-12-19T04:41:43.139Z,6.14
2016-12-19T04:42:54.326Z,6.15
2016-12-19T04:44:05.511Z,6.1
2016-12-19T04:45:16.703Z,6.13
2016-12-19T04:46:27.700Z,6.14
2016-12-19T04:47:38.690Z,6.14
2016-12-19T04:48:49.678Z,6.13
2016-12-19T04:50:00.666Z,6.1
2016-12-19T04:51:11.653Z,6.18
2016-12-19T04:52:22.659Z,6.17
2016-12-19T04:53:33.851Z,6.13
2016-12-19T04:54:44.838Z,6.2
2016-12-19T04:55:56.025Z,6.2
2016-12-19T04:57:07.011Z,6.18
2016-12-19T04:58:17.999Z,6.25
2016-12-19T04:59:28.998Z,6.25
2016-12-19T05:00:39.981Z,6.2
2016-12-19T05:01:50.963Z,6.25
2016-12-19T05:03:01.947Z,6.24
2016-12-19T05:04:12.931Z,6.15
2016-12-19T05:05:23.905Z,6.2
2016-12-19T05:06:34.902Z,6.2
2016-12-19T05:07:45.894Z,6.26
2016-12-19T05:08:56.884Z,6.17
2016-12-19T05:10:07.934Z,6.2
2016-12-19T05:11:18.925Z,6.24
2016-12-19T05:12:29.915Z,6.21
2016-12-19T05:13:40.911Z,6.21
2016-12-19T05:14:51.907Z,6.24
2016-12-19T05:16:02.891Z,6.2
2016-12-19T05:17:13.876Z,6.2
2016-12-19T05:18:24.861Z,6.21
2016-12-19T05:19:35.859Z,6.2
2016-12-19T05:20:46.852Z,6.18
2016-12-19T05:21:57.857Z,6.25
2016-12-19T05:23:08.850Z,6.17
2016-12-19T05:24:19.840Z,6.2
2016-12-19T05:25:30.830Z,6.29
2016-12-19T05:26:42.221Z,6.18
2016-12-19T05:27:53.208Z,6.14
2016-12-19T05:29:04.198Z,6.24
2016-12-19T05:30:15.187Z,6.29
2016-12-19T05:31:26.168Z,6.25
2016-12-19T05:32:37.155Z,6.24
2016-12-19T05:33:48.133Z,6.24
2016-12-19T05:34:59.125Z,6.17
2016-12-19T05:36:10.163Z,6.24
2016-12-19T05:37:21.148Z,6.24
2016-12-19T05:38:32.140Z,6.25
2016-12-19T05:39:43.125Z,6.21
2016-12-19T05:40:54.173Z,6.25
2016-12-19T05:42:05.161Z,6.17
2016-12-19T05:43:16.144Z,6.21
2016-12-19T05:44:27.134Z,6.17
2016-12-19T05:45:38.131Z,6.26
2016-12-19T05:46:49.322Z,6.24
2016-12-19T05:48:00.507Z,6.25
2016-12-19T05:49:11.513Z,6.18
2016-12-19T05:50:22.756Z,6.18
2016-12-19T05:51:33.743Z,6.26
2016-12-19T05:52:44.733Z,6.25
2016-12-19T05:53:55.728Z,6.21
2016-12-19T05:55:06.915Z,6.25
2016-12-19T05:56:17.901Z,6.13
2016-12-19T05:57:28.887Z,6.1
2016-12-19T05:58:39.873Z,6.14
2016-12-19T05:59:50.854Z,6.15
2016-12-19T06:01:01.840Z,6.14
2016-12-19T06:02:12.834Z,6.15
2016-12-19T06:03:23.827Z,6.09
2016-12-19T06:04:34.813Z,6.13
2016-12-19T06:05:45.819Z,6.15
2016-12-19T06:06:56.815Z,6.1
2016-12-19T06:08:07.802Z,6.2
2016-12-19T06:09:18.786Z,6.15
2016-12-19T06:10:29.771Z,6.1
2016-12-19T06:11:40.755Z,6.14
2016-12-19T06:12:51.742Z,6.17
2016-12-19T06:14:02.757Z,6.13
2016-12-19T06:15:13.740Z,6.09
2016-12-19T06:16:24.728Z,6.09
2016-12-19T06:17:35.954Z,6.13
2016-12-19T06:18:46.936Z,6.1
2016-12-19T06:19:57.932Z,6.07
2016-12-19T06:21:08.985Z,6.13
2016-12-19T06:22:19.990Z,6.07
2016-12-19T06:23:30.976Z,6.06
2016-12-19T06:24:41.970Z,6.05
2016-12-19T06:25:53.000Z,6.15
2016-12-19T06:27:03.986Z,6.13
2016-12-19T06:28:14.975Z,6.1
2016-12-19T06:29:25.958Z,6.1
2016-12-19T06:30:36.972Z,6.07
2016-12-19T06:31:47.996Z,6.1
2016-12-19T06:32:58.983Z,6.05
2016-12-19T06:34:09.979Z,5.99
2016-12-19T06:35:20.965Z,6.03
2016-12-19T06:36:32.365Z,5.95
2016-12-19T06:37:43.397Z,5.98
2016-12-19T06:38:54.377Z,5.91
2016-12-19T06:40:05.368Z,5.85
2016-12-19T06:41:16.354Z,5.88
2016-12-19T06:42:27.337Z,5.88
2016-12-19T06:43:38.407Z,5.84
2016-12-19T06:44:49.399Z,5.8
2016-12-19T06:46:00.382Z,5.73
2016-12-19T06:47:11.576Z,5.75
2016-12-19T06:48:22.760Z,5.73
2016-12-19T06:49:33.792Z,5.78
2016-12-19T06:50:44.972Z,5.75
2016-12-19T06:51:55.960Z,5.77
2016-12-19T06:53:06.954Z,5.73
2016-12-19T06:54:17.933Z,5.73
2016-12-19T06:55:28.970Z,5.77
2016-12-19T06:56:39.960Z,5.7
2016-12-19T06:57:50.953Z,5.77
2016-12-19T06:59:02.135Z,5.7
2016-12-19T07:00:13.324Z,5.66
2016-12-19T07:01:24.317Z,5.69
2016-12-19T07:02:35.313Z,5.72
2016-12-19T07:03:46.502Z,5.6
2016-12-19T07:04:57.495Z,5.66
2016-12-19T07:06:08.534Z,5.72
2016-12-19T07:07:19.526Z,5.72
2016-12-19T07:08:30.508Z,5.67
2016-12-19T07:09:41.701Z,5.67
2016-12-19T07:10:52.688Z,5.66
2016-12-19T07:12:03.876Z,5.54
2016-12-19T07:13:14.865Z,5.69
2016-12-19T07:14:25.853Z,5.67
2016-12-19T07:15:36.845Z,5.69
2016-12-19T07:16:48.034Z,5.57
2016-12-19T07:17:59.225Z,5.66
2016-12-19T07:19:10.416Z,5.69
2016-12-19T07:20:21.649Z,5.7
2016-12-19T07:21:32.640Z,5.69
2016-12-19T07:22:43.622Z,5.69
2016-12-19T07:23:55.009Z,5.67
2016-12-19T07:25:05.997Z,5.52
2016-12-19T07:26:17.190Z,5.69
2016-12-19T07:27:28.389Z,5.67
2016-12-19T07:28:39.380Z,5.64
2016-12-19T07:29:50.360Z,5.69
2016-12-19T07:31:01.346Z,5.72
2016-12-19T07:32:12.739Z,5.66
2016-12-19T07:33:23.725Z,5.63
2016-12-19T07:34:34.720Z,5.63
2016-12-19T07:35:45.708Z,5.52
2016-12-19T07:36:56.704Z,5.48
2016-12-19T07:38:07.689Z,5.49
2016-12-19T07:39:18.673Z,5.45
2016-12-19T07:40:29.660Z,5.39
2016-12-19T07:41:40.653Z,5.36
2016-12-19T07:42:51.636Z,5.34
2016-12-19T07:44:02.826Z,5.28
2016-12-19T07:45:13.810Z,5.26
2016-12-19T07:46:24.992Z,5.31
2016-12-19T07:47:36.215Z,5.33
2016-12-19T07:48:47.201Z,5.31
2016-12-19T07:49:58.187Z,5.28
2016-12-19T07:51:09.178Z,5.3
2016-12-19T07:52:20.364Z,5.3
2016-12-19T07:53:31.559Z,5.36
2016-12-19T07:54:42.543Z,5.36
2016-12-19T07:55:53.522Z,5.36
2016-12-19T07:57:04.508Z,5.34
2016-12-19T07:58:15.501Z,5.41
2016-12-19T07:59:26.482Z,5.42
2016-12-19T08:00:37.474Z,5.41
2016-12-19T08:01:48.464Z,5.44
2016-12-19T08:02:59.454Z,5.46
2016-12-19T08:04:10.443Z,5.44
2016-12-19T08:05:21.427Z,5.59
2016-12-19T08:06:32.418Z,5.52
2016-12-19T08:07:43.409Z,5.57
2016-12-19T08:08:54.415Z,5.57
2016-12-19T08:10:05.801Z,5.57
2016-12-19T08:11:16.789Z,5.54
2016-12-19T08:12:27.784Z,5.72
2016-12-19T08:13:38.767Z,5.73
2016-12-19T08:14:49.785Z,5.69
2016-12-19T08:16:00.766Z,5.69
2016-12-19T08:17:11.947Z,5.7
2016-12-19T08:18:22.931Z,5.69
2016-12-19T08:19:33.919Z,5.69
2016-12-19T08:20:44.904Z,5.7
2016-12-19T08:21:55.896Z,5.63
2016-12-19T08:23:07.087Z,5.67
2016-12-19T08:24:18.099Z,5.63
2016-12-19T08:25:29.086Z,5.69
2016-12-19T08:26:40.079Z,5.69
2016-12-19T08:27:51.066Z,5.73
2016-12-19T08:29:02.082Z,5.67
2016-12-19T08:30:13.070Z,5.72
2016-12-19T08:31:24.065Z,5.7
2016-12-19T08:32:35.054Z,5.8
2016-12-19T08:33:46.044Z,5.7
2016-12-19T08:34:57.232Z,5.73
2016-12-19T08:36:08.221Z,5.67
2016-12-19T08:37:19.237Z,5.69
2016-12-19T08:38:30.423Z,5.72
2016-12-19T08:39:41.608Z,5.77
2016-12-19T08:40:52.586Z,5.69
2016-12-19T08:42:03.569Z,5.72
2016-12-19T08:43:14.556Z,5.67
2016-12-19T08:44:25.542Z,5.73
2016-12-19T08:45:36.737Z,5.8
2016-12-19T08:46:47.927Z,5.85
2016-12-19T08:47:58.919Z,5.91
2016-12-19T08:49:09.901Z,5.89
2016-12-19T08:50:20.888Z,5.84
2016-12-19T08:51:32.074Z,5.96
2016-12-19T08:52:43.052Z,5.91
2016-12-19T08:53:54.040Z,5.88
2016-12-19T08:55:05.078Z,5.91
2016-12-19T08:56:16.061Z,5.96
2016-12-19T08:57:27.042Z,5.96
2016-12-19T08:58:38.046Z,5.99
2016-12-19T08:59:49.042Z,6.06
2016-12-19T09:01:00.221Z,6.07
2016-12-19T09:02:11.207Z,6.05
2016-12-19T09:03:22.392Z,6.02
2016-12-19T09:04:33.381Z,6.03
2016-12-19T09:05:44.367Z,6.02
2016-12-19T09:06:55.347Z,6.03
2016-12-19T09:08:06.344Z,6.03
2016-12-19T09:09:17.335Z,6.03
2016-12-19T09:10:28.318Z,5.96
2016-12-19T09:11:39.306Z,5.98
2016-12-19T09:12:50.288Z,5.89
2016-12-19T09:14:01.274Z,5.91
2016-12-19T09:15:12.258Z,5.88
2016-12-19T09:16:23.242Z,5.84
2016-12-19T09:17:34.257Z,5.81
2016-12-19T09:18:45.250Z,5.85
2016-12-19T09:19:56.235Z,5.89
2016-12-19T09:21:07.221Z,5.98
2016-12-19T09:22:18.217Z,6.07
2016-12-19T09:23:29.408Z,6.14
2016-12-19T09:24:40.401Z,6.18
2016-12-19T09:25:51.797Z,6.15
2016-12-19T09:27:02.777Z,6.37
2016-12-19T09:28:13.759Z,6.28
2016-12-19T09:29:24.948Z,6.2
2016-12-19T09:30:35.929Z,6.17
2016-12-19T09:31:46.917Z,6.17
2016-12-19T09:32:57.901Z,6.06
2016-12-19T09:34:08.884Z,5.96
2016-12-19T09:35:19.874Z,5.85
2016-12-19T09:36:30.873Z,5.87
2016-12-19T09:37:42.067Z,5.89
2016-12-19T09:38:53.055Z,5.89
2016-12-19T09:40:04.035Z,6.05
2016-12-19T09:41:15.031Z,6.03
2016-12-19T09:42:26.213Z,6.05
2016-12-19T09:43:37.194Z,6.09
2016-12-19T09:44:48.178Z,6.13
2016-12-19T09:45:59.155Z,6.21
2016-12-19T09:47:10.156Z,6.17
2016-12-19T09:48:21.148Z,6.06
2016-12-19T09:49:32.136Z,6.06
2016-12-19T09:50:43.326Z,6.09
2016-12-19T09:51:54.315Z,6.13
2016-12-19T09:53:05.506Z,6.05
2016-12-19T09:54:16.496Z,6.1
2016-12-19T09:55:27.479Z,5.89
2016-12-19T09:56:38.452Z,5.87
2016-12-19T09:57:49.447Z,5.73
2016-12-19T09:59:00.432Z,5.81
2016-12-19T10:00:11.415Z,5.8
2016-12-19T10:01:22.400Z,5.77
2016-12-19T10:02:33.374Z,5.88
2016-12-19T10:03:44.359Z,5.7
2016-12-19T10:04:55.342Z,5.8
2016-12-19T10:06:06.334Z,5.73
2016-12-19T10:07:17.322Z,5.77
2016-12-19T10:08:28.516Z,5.72
2016-12-19T10:09:39.709Z,5.73
2016-12-19T10:10:50.690Z,5.72
2016-12-19T10:12:01.723Z,5.8
2016-12-19T10:13:12.718Z,5.63
2016-12-19T10:14:23.705Z,5.69
2016-12-19T10:15:34.689Z,5.66
2016-12-19T10:16:45.676Z,5.69
2016-12-19T10:17:56.672Z,5.69
2016-12-19T10:19:07.663Z,5.78
2016-12-19T10:20:18.848Z,5.77
2016-12-19T10:21:29.828Z,5.81
2016-12-19T10:22:40.839Z,5.77
2016-12-19T10:23:51.823Z,5.78
2016-12-19T10:25:02.862Z,5.8
2016-12-19T10:26:13.847Z,5.8
2016-12-19T10:27:24.835Z,5.7
2016-12-19T10:28:35.813Z,5.72
2016-12-19T10:29:46.802Z,5.72
2016-12-19T10:30:57.843Z,5.6
2016-12-19T10:32:08.828Z,5.75
2016-12-19T10:33:19.810Z,5.69
2016-12-19T10:34:30.992Z,5.73
2016-12-19T10:35:41.982Z,5.69
2016-12-19T10:36:53.168Z,5.64
2016-12-19T10:38:04.154Z,5.67
2016-12-19T10:39:15.339Z,5.72
2016-12-19T10:40:26.327Z,5.66
2016-12-19T10:41:37.313Z,5.7
2016-12-19T10:42:48.312Z,5.75
2016-12-19T10:43:59.294Z,5.73
2016-12-19T10:45:10.676Z,5.7
2016-12-19T10:46:21.655Z,5.8
2016-12-19T10:47:32.639Z,5.75
2016-12-19T10:48:43.648Z,5.84
2016-12-19T10:49:54.632Z,5.82
2016-12-19T10:51:05.615Z,5.96
2016-12-19T10:52:16.600Z,5.92
2016-12-19T10:53:27.583Z,6.02
2016-12-19T10:54:38.571Z,5.95
2016-12-19T10:55:49.571Z,6.07
2016-12-19T10:57:00.560Z,6.06
2016-12-19T10:58:11.546Z,6.17
2016-12-19T10:59:22.534Z,6.09
2016-12-19T11:00:33.524Z,6.21
2016-12-19T11:01:44.503Z,6.25
2016-12-19T11:02:55.481Z,6.28
2016-12-19T11:04:06.466Z,6.31
2016-12-19T11:05:17.452Z,6.44
2016-12-19T11:06:28.441Z,6.4
2016-12-19T11:07:39.427Z,6.57
2016-12-19T11:08:50.618Z,6.57
2016-12-19T11:10:01.817Z,6.72
2016-12-19T11:11:12.821Z,6.76
2016-12-19T11:12:24.005Z,6.9
2016-12-19T11:13:34.998Z,7.03
2016-12-19T11:14:46.185Z,7.11
2016-12-19T11:15:57.178Z,7.22
2016-12-19T11:17:08.159Z,7.16
2016-12-19T11:18:19.349Z,7.39
2016-12-19T11:19:30.331Z,7.56
2016-12-19T11:20:41.320Z,7.77
2016-12-19T11:21:52.316Z,7.88
2016-12-19T11:23:03.504Z,8.06
2016-12-19T11:24:14.499Z,8.09
2016-12-19T11:25:25.687Z,8.24
2016-12-19T11:26:36.678Z,8.24
2016-12-19T11:27:47.933Z,8.35
2016-12-19T11:28:59.093Z,8.26
2016-12-19T11:30:10.230Z,8.42
2016-12-19T11:31:21.320Z,8.43
2016-12-19T11:32:32.522Z,8.39
2016-12-19T11:33:43.708Z,8.4
2016-12-19T11:34:54.727Z,8.25
2016-12-19T11:36:05.748Z,8.09
2016-12-19T11:37:17.141Z,8.11
2016-12-19T11:38:28.139Z,8.19
2016-12-19T11:39:39.341Z,8.04
2016-12-19T11:40:50.534Z,7.96
2016-12-19T11:42:01.523Z,7.96
2016-12-19T11:43:12.508Z,8.11
2016-12-19T11:44:23.495Z,8.19
2016-12-19T11:45:34.531Z,8.39
2016-12-19T11:46:45.935Z,8.53
2016-12-19T11:47:57.124Z,8.87
2016-12-19T11:49:08.124Z,8.98
2016-12-19T11:50:19.118Z,8.9
2016-12-19T11:51:30.120Z,8.68
2016-12-19T11:52:41.115Z,8.69
2016-12-19T11:53:52.094Z,8.82
2016-12-19T11:55:03.132Z,8.98
2016-12-19T11:56:14.137Z,9.04
2016-12-19T11:57:25.124Z,9.17
2016-12-19T11:58:36.111Z,9.42
2016-12-19T11:59:47.105Z,9.53
2016-12-19T12:00:58.097Z,9.7
2016-12-19T12:02:09.091Z,9.85
2016-12-19T12:03:20.278Z,9.92
2016-12-19T12:04:31.271Z,9.93
2016-12-19T12:05:42.463Z,9.98
2016-12-19T12:06:53.459Z,10.14
2016-12-19T12:08:04.655Z,10.25
2016-12-19T12:09:15.643Z,10.44
2016-12-19T12:10:26.843Z,10.38
2016-12-19T12:11:37.841Z,10.31
2016-12-19T12:12:48.828Z,10.32
2016-12-19T12:13:59.829Z,10.11
2016-12-19T12:15:10.819Z,9.92
2016-12-19T12:16:21.805Z,9.75
2016-12-19T12:17:32.832Z,9.62
2016-12-19T12:18:43.826Z,9.41
2016-12-19T12:19:54.819Z,9.38
2016-12-19T12:21:05.812Z,9.09
2016-12-19T12:22:16.810Z,9.19
2016-12-19T12:23:27.802Z,9.19
2016-12-19T12:24:38.992Z,9.14
2016-12-19T12:25:49.983Z,9.17
2016-12-19T12:27:00.964Z,9.03
2016-12-19T12:28:11.951Z,9.2
2016-12-19T12:29:22.941Z,9.23
2016-12-19T12:30:33.933Z,9.11
2016-12-19T12:31:44.923Z,9.11
2016-12-19T12:32:55.914Z,9.41
2016-12-19T12:34:06.911Z,9.38
2016-12-19T12:35:17.903Z,9.21
2016-12-19T12:36:28.896Z,9.2
2016-12-19T12:37:39.887Z,8.98
2016-12-19T12:38:51.117Z,9
2016-12-19T12:40:02.119Z,9.05
2016-12-19T12:41:13.143Z,9.12
2016-12-19T12:42:24.340Z,9.19
2016-12-19T12:43:35.324Z,9.32
2016-12-19T12:44:46.311Z,9.37
2016-12-19T12:45:57.298Z,9.42
2016-12-19T12:47:08.280Z,9.39
2016-12-19T12:48:19.281Z,9.27
2016-12-19T12:49:30.270Z,9.44
2016-12-19T12:50:41.250Z,9.39
2016-12-19T12:51:52.443Z,9.56
2016-12-19T12:53:03.433Z,9.5
2016-12-19T12:54:14.417Z,9.52
2016-12-19T12:55:25.454Z,9.55
2016-12-19T12:56:36.440Z,9.48
2016-12-19T12:57:47.430Z,9.42
2016-12-19T12:58:58.427Z,9.29
2016-12-19T13:00:09.429Z,9.2
2016-12-19T13:01:20.477Z,8.89
2016-12-19T13:02:31.470Z,8.76
2016-12-19T13:03:42.468Z,8.61
2016-12-19T13:04:53.658Z,8.5
2016-12-19T13:06:04.649Z,8.57
2016-12-19T13:07:15.697Z,8.68
2016-12-19T13:08:26.691Z,8.74
2016-12-19T13:09:37.675Z,8.85
2016-12-19T13:10:48.663Z,8.95
2016-12-19T13:11:59.652Z,8.98
2016-12-19T13:13:10.887Z,9.11
2016-12-19T13:14:21.872Z,8.92
2016-12-19T13:15:33.066Z,8.82
2016-12-19T13:16:44.251Z,8.67
2016-12-19T13:17:55.232Z,8.76
2016-12-19T13:19:06.213Z,8.62
2016-12-19T13:20:17.201Z,8.52
2016-12-19T13:21:28.190Z,8.53
2016-12-19T13:22:39.189Z,8.4
2016-12-19T13:23:50.226Z,8.47
2016-12-19T13:25:01.215Z,8.39
2016-12-19T13:26:12.201Z,8.17
2016-12-19T13:27:23.379Z,8.06
2016-12-19T13:28:34.565Z,8.01
2016-12-19T13:29:45.760Z,7.93
2016-12-19T13:30:56.948Z,7.85
2016-12-19T13:32:08.136Z,7.98
2016-12-19T13:33:19.327Z,8.06
2016-12-19T13:34:30.359Z,8.09
2016-12-19T13:35:41.362Z,8.25
2016-12-19T13:36:52.548Z,8.43
2016-12-19T13:38:03.542Z,8.54
2016-12-19T13:39:14.527Z,8.61
2016-12-19T13:40:25.523Z,8.79
2016-12-19T13:41:36.517Z,8.86
2016-12-19T13:42:47.503Z,9.05
2016-12-19T13:43:58.488Z,9.05
2016-12-19T13:45:09.529Z,9.17
2016-12-19T13:46:20.516Z,9.17
2016-12-19T13:47:31.501Z,9.32
2016-12-19T13:48:42.695Z,9.32
2016-12-19T13:49:53.684Z,9.29
2016-12-19T13:51:05.460Z,9.34
2016-12-19T13:52:16.441Z,9.3
2016-12-19T13:53:27.462Z,9.21
2016-12-19T13:54:38.454Z,9.01
2016-12-19T13:55:49.491Z,8.74
2016-12-19T13:57:00.477Z,8.47
2016-12-19T13:58:11.458Z,8.22
2016-12-19T13:59:22.655Z,7.96
2016-12-19T14:00:33.639Z,7.8
2016-12-19T14:01:44.828Z,7.75
2016-12-19T14:02:55.823Z,7.59
2016-12-19T14:04:06.803Z,7.44
2016-12-19T14:05:17.986Z,7.31
2016-12-19T14:06:29.023Z,7.27
2016-12-19T14:07:40.212Z,7.09
2016-12-19T14:08:51.204Z,6.98
2016-12-19T14:10:02.188Z,6.93
2016-12-19T14:11:13.387Z,6.95
2016-12-19T14:12:24.624Z,6.9
2016-12-19T14:13:35.608Z,6.94
2016-12-19T14:14:46.601Z,6.93
2016-12-19T14:15:57.589Z,6.93
2016-12-19T14:17:08.572Z,6.94
2016-12-19T14:18:19.607Z,6.91
2016-12-19T14:19:30.604Z,6.91
2016-12-19T14:20:41.584Z,7
2016-12-19T14:21:52.598Z,6.9
2016-12-19T14:23:03.593Z,6.91
2016-12-19T14:24:14.586Z,6.98
2016-12-19T14:25:25.572Z,6.88
2016-12-19T14:26:36.559Z,6.85
2016-12-19T14:27:47.746Z,6.83
2016-12-19T14:28:58.793Z,6.83
2016-12-19T14:30:09.790Z,6.86
2016-12-19T14:31:20.785Z,6.8
2016-12-19T14:32:31.769Z,6.76
2016-12-19T14:33:42.757Z,6.62
2016-12-19T14:34:53.789Z,6.64
2016-12-19T14:36:45.091Z,6.6
2016-12-19T14:37:56.076Z,6.54
2016-12-19T14:39:07.061Z,6.49
2016-12-19T14:40:18.052Z,6.57
2016-12-19T14:41:29.245Z,6.57
2016-12-19T14:42:40.225Z,6.47
2016-12-19T14:43:51.241Z,6.43
2016-12-19T14:45:02.479Z,6.46
2016-12-19T14:46:13.463Z,6.43
2016-12-19T14:47:24.480Z,6.37
2016-12-19T14:48:35.476Z,6.33
2016-12-19T14:49:46.473Z,6.33
2016-12-19T14:50:57.464Z,6.33
2016-12-19T14:52:08.446Z,6.31
2016-12-19T14:53:19.432Z,6.24
2016-12-19T14:54:30.619Z,6.24
2016-12-19T14:55:41.806Z,6.26
2016-12-19T14:56:52.798Z,6.14
2016-12-19T14:58:03.988Z,6.17
2016-12-19T14:59:14.974Z,6.06
2016-12-19T15:00:25.957Z,6.05
2016-12-19T15:01:36.944Z,6
2016-12-19T15:02:47.936Z,5.92
2016-12-19T15:03:58.916Z,5.89
2016-12-19T15:05:09.901Z,5.84
2016-12-19T15:06:20.885Z,5.85
2016-12-19T15:07:31.867Z,5.88
2016-12-19T15:08:42.852Z,5.85
2016-12-19T15:09:53.834Z,5.91
2016-12-19T15:11:04.814Z,5.75
2016-12-19T15:12:15.797Z,5.77
2016-12-19T15:13:26.792Z,5.8
2016-12-19T15:14:37.800Z,5.82
2016-12-19T15:15:48.815Z,5.85
2016-12-19T15:17:00.002Z,5.81
2016-12-19T15:18:10.986Z,5.88
2016-12-19T15:19:21.976Z,5.84
2016-12-19T15:20:33.165Z,5.87
2016-12-19T15:21:44.158Z,5.95
2016-12-19T15:22:55.349Z,5.87
2016-12-19T15:24:06.349Z,5.87
2016-12-19T15:25:17.332Z,5.85
2016-12-19T15:26:28.305Z,5.73
2016-12-19T15:27:39.288Z,5.73
2016-12-19T15:28:50.273Z,5.7
2016-12-19T15:30:01.260Z,5.77
2016-12-19T15:31:12.245Z,5.7
2016-12-19T15:32:23.436Z,5.77
2016-12-19T15:33:34.411Z,5.77
2016-12-19T15:34:45.434Z,5.77
2016-12-19T15:35:56.469Z,5.75
2016-12-19T15:37:07.456Z,5.73
2016-12-19T15:38:18.439Z,5.78
2016-12-19T15:39:29.625Z,5.72
2016-12-19T15:40:40.812Z,5.7
2016-12-19T15:41:51.795Z,5.8
2016-12-19T15:43:02.773Z,5.73
2016-12-19T15:44:14.158Z,5.78
2016-12-19T15:45:25.190Z,5.78
2016-12-19T15:46:36.577Z,5.82
2016-12-19T15:47:47.793Z,5.81
2016-12-19T15:48:58.776Z,5.78
2016-12-19T15:50:09.972Z,5.75